createdAt,value
2017-09-24T00:01:33.057Z,54.53
2017-09-24T00:04:01.533Z,57.27
2017-09-24T00:06:30.179Z,48.50
2017-09-24T00:08:58.671Z,50.60
2017-09-24T00:11:27.181Z,59.93
2017-09-24T00:13:55.790Z,56.10
2017-09-24T00:16:26.187Z,54.83
2017-09-24T00:18:54.625Z,64.43
2017-09-24T00:21:23.036Z,61.60
2017-09-24T00:23:51.541Z,56.20
2017-09-24T00:26:20.007Z,51.17
2017-09-24T00:28:48.502Z,46.83
2017-09-24T00:31:16.885Z,55.13
2017-09-24T00:33:45.283Z,53.87
2017-09-24T00:36:13.827Z,51.83
2017-09-24T00:38:42.737Z,50.83
2017-09-24T00:41:11.308Z,63.47
2017-09-24T00:43:39.695Z,58.67
2017-09-24T00:46:08.831Z,57.50
2017-09-24T00:48:37.494Z,60.53
2017-09-24T00:51:05.964Z,61.37
2017-09-24T00:53:34.345Z,64.10
2017-09-24T00:56:02.825Z,73.03
2017-09-24T00:58:31.193Z,73.50
2017-09-24T01:00:59.713Z,64.20
2017-09-24T01:03:30.130Z,64.80
2017-09-24T01:05:58.562Z,72.00
2017-09-24T01:08:26.993Z,81.53
2017-09-24T01:10:55.360Z,69.10
2017-09-24T01:13:23.745Z,62.00
2017-09-24T01:15:52.195Z,79.00
2017-09-24T01:18:20.577Z,76.00
2017-09-24T01:20:48.989Z,74.83
2017-09-24T01:23:17.376Z,77.70
2017-09-24T01:25:45.745Z,72.10
2017-09-24T01:28:14.135Z,83.77
2017-09-24T01:30:42.525Z,89.13
2017-09-24T01:33:11.013Z,82.70
2017-09-24T01:35:39.485Z,80.43
2017-09-24T01:38:07.895Z,89.47
2017-09-24T01:40:36.724Z,72.10
2017-09-24T01:43:05.192Z,86.33
2017-09-24T01:45:33.846Z,86.30
2017-09-24T01:48:02.341Z,77.93
2017-09-24T01:50:30.760Z,72.17
2017-09-24T01:52:59.145Z,88.13
2017-09-24T01:55:27.512Z,77.93
2017-09-24T01:57:55.878Z,88.00
2017-09-24T02:00:24.261Z,78.30
2017-09-24T02:02:52.635Z,79.03
2017-09-24T02:05:21.014Z,86.53
2017-09-24T02:07:49.432Z,91.60
2017-09-24T02:10:17.776Z,85.97
2017-09-24T02:12:46.213Z,77.60
2017-09-24T02:15:14.619Z,86.43
2017-09-24T02:17:42.984Z,70.47
2017-09-24T02:20:11.348Z,79.87
2017-09-24T02:22:39.761Z,77.20
2017-09-24T02:25:08.273Z,95.10
2017-09-24T02:27:37.080Z,83.50
2017-09-24T02:30:05.461Z,87.20
2017-09-24T02:32:33.846Z,89.90
2017-09-24T02:35:02.355Z,79.73
2017-09-24T02:37:30.757Z,78.13
2017-09-24T02:39:59.225Z,97.83
2017-09-24T02:42:27.580Z,80.63
2017-09-24T02:44:56.001Z,78.50
2017-09-24T02:47:24.430Z,83.17
2017-09-24T02:49:52.765Z,93.23
2017-09-24T02:52:21.148Z,91.00
2017-09-24T02:54:49.493Z,95.80
2017-09-24T02:57:17.856Z,85.80
2017-09-24T02:59:46.287Z,84.00
2017-09-24T03:02:14.638Z,79.30
2017-09-24T03:04:43.083Z,84.53
2017-09-24T03:07:11.466Z,73.80
2017-09-24T03:09:39.935Z,82.13
2017-09-24T03:12:08.320Z,78.40
2017-09-24T03:14:37.119Z,88.90
2017-09-24T03:17:05.510Z,85.87
2017-09-24T03:19:33.873Z,81.57
2017-09-24T03:22:02.371Z,79.50
2017-09-24T03:24:30.733Z,79.37
2017-09-24T03:26:59.085Z,93.40
2017-09-24T03:29:27.602Z,83.77
2017-09-24T03:31:56.027Z,84.07
2017-09-24T03:34:24.443Z,101.13
2017-09-24T03:36:52.801Z,92.90
2017-09-24T03:39:21.183Z,96.23
2017-09-24T03:41:49.594Z,87.33
2017-09-24T03:44:18.243Z,84.30
2017-09-24T03:46:46.672Z,97.23
2017-09-24T03:49:15.161Z,89.90
2017-09-24T03:51:43.659Z,93.67
2017-09-24T03:54:12.082Z,98.37
2017-09-24T03:56:40.626Z,98.13
2017-09-24T03:59:09.025Z,72.83
2017-09-24T04:01:37.530Z,63.80
2017-09-24T04:04:05.949Z,66.40
2017-09-24T04:06:34.393Z,55.67
2017-09-24T04:09:02.755Z,59.73
2017-09-24T04:11:31.101Z,60.17
2017-09-24T04:13:59.602Z,63.33
2017-09-24T04:16:27.973Z,69.13
2017-09-24T04:18:56.352Z,68.97
2017-09-24T04:21:24.808Z,81.07
2017-09-24T04:23:53.219Z,83.97
2017-09-24T04:26:21.632Z,83.50
2017-09-24T04:28:50.110Z,81.93
2017-09-24T04:31:18.435Z,83.23
2017-09-24T04:33:46.830Z,82.73
2017-09-24T04:36:15.419Z,100.33
2017-09-24T04:38:43.888Z,88.33
2017-09-24T04:41:12.256Z,90.07
2017-09-24T04:43:40.655Z,102.00
2017-09-24T04:46:09.187Z,95.73
2017-09-24T04:48:37.704Z,85.97
2017-09-24T04:51:06.163Z,95.73
2017-09-24T04:53:34.568Z,87.03
2017-09-24T04:56:02.950Z,92.40
2017-09-24T04:58:31.353Z,77.07
2017-09-24T05:00:59.796Z,85.70
2017-09-24T05:03:28.164Z,84.20
2017-09-24T05:05:56.582Z,100.83
2017-09-24T05:08:24.950Z,80.43
2017-09-24T05:10:54.085Z,73.43
2017-09-24T05:13:22.496Z,89.27
2017-09-24T05:15:50.880Z,76.50
2017-09-24T05:18:19.257Z,79.83
2017-09-24T05:20:47.723Z,80.20
2017-09-24T05:23:16.074Z,85.70
2017-09-24T05:25:44.469Z,80.73
2017-09-24T05:28:12.889Z,63.30
2017-09-24T05:30:41.340Z,65.13
2017-09-24T05:33:09.800Z,64.50
2017-09-24T05:35:38.320Z,65.00
2017-09-24T05:38:06.748Z,64.33
2017-09-24T05:40:35.754Z,65.87
2017-09-24T05:43:04.217Z,67.03
2017-09-24T05:45:32.568Z,72.40
2017-09-24T05:48:00.963Z,66.23
2017-09-24T05:50:29.320Z,65.10
2017-09-24T05:52:57.806Z,71.07
2017-09-24T05:55:26.188Z,68.20
2017-09-24T05:57:54.580Z,75.17
2017-09-24T06:00:22.941Z,69.23
2017-09-24T06:02:51.384Z,67.20
2017-09-24T06:05:19.757Z,62.77
2017-09-24T06:07:48.125Z,62.17
2017-09-24T06:10:16.536Z,73.10
2017-09-24T06:12:45.004Z,71.47
2017-09-24T06:17:48.056Z,62.90
2017-09-24T06:20:16.458Z,52.03
2017-09-24T06:22:44.926Z,79.27
2017-09-24T06:25:13.382Z,54.57
2017-09-24T06:27:41.788Z,62.23
2017-09-24T06:30:10.191Z,62.53
2017-09-24T06:32:38.725Z,67.83
2017-09-24T06:35:07.252Z,61.47
2017-09-24T06:37:35.605Z,55.67
2017-09-24T06:40:04.783Z,57.13
2017-09-24T06:42:33.187Z,60.33
2017-09-24T06:45:01.569Z,57.03
2017-09-24T06:47:30.077Z,61.70
2017-09-24T06:49:58.509Z,60.30
2017-09-24T06:52:26.889Z,53.50
2017-09-24T06:54:55.413Z,63.63
2017-09-24T06:57:23.810Z,66.30
2017-09-24T06:59:52.226Z,70.53
2017-09-24T07:02:20.700Z,63.40
2017-09-24T07:04:49.050Z,64.53
2017-09-24T07:07:17.406Z,64.27
2017-09-24T07:09:45.848Z,71.87
2017-09-24T07:12:14.225Z,69.67
2017-09-24T07:14:42.649Z,61.87
2017-09-24T07:17:11.236Z,66.90
2017-09-24T07:19:39.686Z,61.27
2017-09-24T07:22:08.131Z,70.23
2017-09-24T07:24:36.590Z,66.10
2017-09-24T07:27:04.972Z,70.50
2017-09-24T07:29:33.464Z,60.57
2017-09-24T07:32:01.974Z,70.93
2017-09-24T07:34:30.369Z,70.27
2017-09-24T07:36:58.799Z,67.40
2017-09-24T07:39:27.228Z,71.47
2017-09-24T07:41:55.630Z,64.57
2017-09-24T07:44:24.137Z,54.57
2017-09-24T07:46:52.656Z,59.47
2017-09-24T07:49:21.111Z,56.53
2017-09-24T07:51:50.079Z,61.57
2017-09-24T07:54:18.664Z,61.60
2017-09-24T07:56:47.080Z,57.10
2017-09-24T07:59:15.523Z,54.73
2017-09-24T08:01:43.972Z,58.67
2017-09-24T08:04:12.369Z,57.07
2017-09-24T08:06:40.869Z,55.87
2017-09-24T08:09:09.473Z,58.83
2017-09-24T08:11:37.954Z,59.93
2017-09-24T08:14:06.566Z,50.47
2017-09-24T08:16:34.991Z,49.93
2017-09-24T08:19:03.593Z,62.20
2017-09-24T08:21:32.068Z,51.73
2017-09-24T08:24:00.629Z,55.70
2017-09-24T08:26:29.122Z,60.93
2017-09-24T08:28:58.073Z,49.33
2017-09-24T08:31:28.441Z,50.27
2017-09-24T08:33:56.863Z,58.63
2017-09-24T08:36:26.130Z,54.67
2017-09-24T08:38:54.787Z,53.27
2017-09-24T08:41:23.658Z,48.77
2017-09-24T08:43:52.129Z,54.10
2017-09-24T08:46:20.722Z,51.77
2017-09-24T08:48:49.277Z,48.83
2017-09-24T08:51:18.476Z,53.07
2017-09-24T08:53:46.951Z,42.33
2017-09-24T08:56:16.317Z,53.63
2017-09-24T09:01:21.964Z,47.53
2017-09-24T09:06:23.690Z,36.50
2017-09-24T09:08:53.408Z,40.00
2017-09-24T09:11:22.043Z,31.83
2017-09-24T09:13:50.506Z,33.80
2017-09-24T09:16:19.579Z,30.30
2017-09-24T09:18:48.170Z,29.63
2017-09-24T09:21:16.902Z,33.10
2017-09-24T09:23:45.423Z,33.17
2017-09-24T09:26:13.900Z,29.57
2017-09-24T09:28:42.357Z,31.17
2017-09-24T09:31:11.060Z,29.90
2017-09-24T09:33:39.468Z,32.97
2017-09-24T09:36:07.988Z,30.03
2017-09-24T09:38:36.677Z,26.23
2017-09-24T09:41:05.095Z,27.13
2017-09-24T09:43:45.773Z,20.97
2017-09-24T09:46:26.145Z,26.60
2017-09-24T09:51:28.976Z,24.30
2017-09-24T09:53:57.364Z,31.77
2017-09-24T09:56:25.854Z,33.23
2017-09-24T09:58:54.250Z,24.50
2017-09-24T10:01:22.626Z,29.70
2017-09-24T10:03:51.111Z,25.70
2017-09-24T10:09:38.195Z,29.10
2017-09-24T10:12:06.920Z,29.33
2017-09-24T10:14:35.344Z,26.00
2017-09-24T10:17:03.762Z,30.00
2017-09-24T10:19:32.577Z,27.43
2017-09-24T10:22:01.079Z,27.80
2017-09-24T10:24:29.614Z,27.63
2017-09-24T10:26:58.165Z,24.50
2017-09-24T10:29:28.407Z,24.00
2017-09-24T10:32:03.392Z,20.63
2017-09-24T10:34:31.793Z,21.63
2017-09-24T10:37:00.237Z,25.60
2017-09-24T10:39:28.677Z,21.17
2017-09-24T10:41:57.019Z,19.13
2017-09-24T10:44:25.349Z,23.40
2017-09-24T10:46:53.766Z,24.23
2017-09-24T10:49:22.159Z,20.43
2017-09-24T10:51:51.334Z,17.03
2017-09-24T10:54:19.765Z,22.13
2017-09-24T10:56:48.177Z,26.97
2017-09-24T10:59:16.881Z,21.27
2017-09-24T11:01:45.290Z,20.93
2017-09-24T11:04:18.368Z,19.83
2017-09-24T11:06:46.849Z,19.63
2017-09-24T11:09:15.322Z,17.17
2017-09-24T11:11:43.803Z,17.20
2017-09-24T11:14:16.668Z,14.87
2017-09-24T11:16:45.064Z,15.47
2017-09-24T11:19:13.534Z,19.87
2017-09-24T11:21:42.123Z,20.83
2017-09-24T11:24:10.506Z,19.13
2017-09-24T11:26:39.066Z,17.80
2017-09-24T11:29:07.495Z,16.20
2017-09-24T11:31:36.012Z,14.30
2017-09-24T11:34:04.686Z,15.20
2017-09-24T11:36:33.196Z,17.60
2017-09-24T11:39:01.558Z,18.27
2017-09-24T11:41:30.081Z,21.33
2017-09-24T11:43:58.500Z,14.47
2017-09-24T11:46:26.905Z,19.43
2017-09-24T11:48:55.435Z,18.00
2017-09-24T11:51:23.874Z,16.70
2017-09-24T11:53:52.262Z,15.27
2017-09-24T11:56:20.691Z,14.47
2017-09-24T11:58:49.047Z,13.73
2017-09-24T12:01:17.496Z,21.17
2017-09-24T12:03:45.958Z,18.23
2017-09-24T12:06:14.417Z,18.33
2017-09-24T12:08:42.902Z,16.33
2017-09-24T12:11:11.427Z,19.10
2017-09-24T12:13:39.868Z,14.20
2017-09-24T12:16:08.384Z,13.60
2017-09-24T12:18:36.887Z,15.13
2017-09-24T12:21:05.284Z,13.37
2017-09-24T12:23:33.781Z,13.83
2017-09-24T12:26:02.222Z,14.53
2017-09-24T12:28:30.685Z,15.70
2017-09-24T12:30:59.024Z,14.50
2017-09-24T12:33:27.438Z,9.23
2017-09-24T12:35:55.829Z,14.83
2017-09-24T12:38:25.503Z,14.27
2017-09-24T12:40:55.162Z,13.07
2017-09-24T12:43:23.563Z,13.87
2017-09-24T12:45:52.046Z,22.60
2017-09-24T12:48:20.599Z,13.47
2017-09-24T12:50:49.001Z,16.00
2017-09-24T12:53:17.372Z,15.87
2017-09-24T12:55:45.858Z,16.93
2017-09-24T12:58:14.281Z,18.10
2017-09-24T13:00:42.733Z,16.33
2017-09-24T13:03:11.277Z,16.53
2017-09-24T13:05:39.952Z,14.37
2017-09-24T13:08:08.660Z,16.30
2017-09-24T13:10:37.401Z,15.50
2017-09-24T13:13:05.838Z,14.20
2017-09-24T13:15:34.310Z,14.63
2017-09-24T13:18:02.829Z,12.10
2017-09-24T13:20:31.333Z,17.77
2017-09-24T13:22:59.825Z,13.23
2017-09-24T13:25:28.252Z,16.90
2017-09-24T13:27:56.680Z,14.67
2017-09-24T13:30:25.086Z,14.10
2017-09-24T13:32:53.657Z,12.57
2017-09-24T13:35:22.181Z,20.10
2017-09-24T13:37:50.596Z,17.50
2017-09-24T13:40:19.352Z,13.77
2017-09-24T13:42:47.967Z,12.40
2017-09-24T13:45:16.434Z,15.70
2017-09-24T13:47:44.929Z,11.70
2017-09-24T13:50:13.364Z,10.77
2017-09-24T13:52:41.848Z,10.70
2017-09-24T13:55:10.489Z,13.77
2017-09-24T13:57:39.000Z,12.43
2017-09-24T14:00:07.452Z,13.93
2017-09-24T14:02:36.159Z,15.37
2017-09-24T14:05:04.607Z,15.30
2017-09-24T14:07:33.306Z,12.10
2017-09-24T14:10:01.816Z,14.03
2017-09-24T14:12:30.790Z,19.63
2017-09-24T14:17:50.308Z,15.67
2017-09-24T14:23:31.212Z,14.33
2017-09-24T14:26:00.412Z,11.77
2017-09-24T14:28:31.325Z,13.97
2017-09-24T14:31:00.083Z,14.30
2017-09-24T14:33:28.505Z,15.23
2017-09-24T14:36:16.838Z,13.40
2017-09-24T14:38:45.438Z,15.13
2017-09-24T14:43:53.219Z,14.17
2017-09-24T14:46:21.800Z,13.50
2017-09-24T14:48:51.955Z,13.97
2017-09-24T14:51:20.665Z,16.73
2017-09-24T14:53:49.227Z,19.23
2017-09-24T14:58:55.508Z,18.70
2017-09-24T15:01:24.067Z,16.57
2017-09-24T15:03:53.782Z,32.70
2017-09-24T15:06:22.586Z,40.00
2017-09-24T15:11:23.956Z,34.70
2017-09-24T15:13:52.682Z,26.30
2017-09-24T15:27:05.298Z,23.73
2017-09-24T15:34:40.353Z,19.57
2017-09-24T15:42:24.329Z,21.43
2017-09-24T15:44:54.546Z,21.83
2017-09-24T15:55:20.972Z,18.77
2017-09-24T16:08:42.482Z,21.93
2017-09-24T16:11:11.260Z,21.67
2017-09-24T16:13:43.894Z,29.67
2017-09-24T16:16:12.938Z,32.60
2017-09-24T16:18:41.453Z,32.30
2017-09-24T16:24:19.695Z,31.30
2017-09-24T16:26:49.030Z,29.53
2017-09-24T16:29:17.514Z,34.10
2017-09-24T16:31:46.186Z,24.03
2017-09-24T16:34:15.705Z,33.77
2017-09-24T16:36:44.746Z,30.10
2017-09-24T16:39:13.421Z,26.97
2017-09-24T16:44:14.909Z,32.23
2017-09-24T16:46:43.536Z,26.07
2017-09-24T16:49:12.105Z,27.60
2017-09-24T16:56:48.891Z,29.90
2017-09-24T16:59:17.379Z,29.40
2017-09-24T17:04:21.357Z,24.37
2017-09-24T17:06:50.117Z,26.87
2017-09-24T17:09:18.540Z,22.20
2017-09-24T17:11:51.554Z,20.73
2017-09-24T17:14:20.241Z,19.47
2017-09-24T17:16:48.810Z,23.40
2017-09-24T17:19:21.126Z,22.10
2017-09-24T17:24:23.452Z,25.30
2017-09-24T17:26:55.938Z,22.87
2017-09-24T17:34:35.115Z,29.10
2017-09-24T17:39:39.964Z,35.17
2017-09-24T17:42:08.565Z,32.27
2017-09-24T17:44:38.487Z,35.63
2017-09-24T17:47:07.434Z,33.87
2017-09-24T17:52:11.720Z,31.93
2017-09-24T17:54:41.160Z,31.93
2017-09-24T17:57:09.716Z,34.50
2017-09-24T17:59:38.376Z,32.50
2017-09-24T18:02:07.250Z,36.00
2017-09-24T18:04:35.800Z,39.93
2017-09-24T18:07:05.121Z,31.13
2017-09-24T18:09:34.110Z,35.90
2017-09-24T18:12:04.711Z,41.67
2017-09-24T18:14:33.454Z,39.00
2017-09-24T18:17:01.875Z,45.50
2017-09-24T18:19:30.346Z,41.47
2017-09-24T18:21:58.936Z,42.07
2017-09-24T18:24:27.395Z,34.43
2017-09-24T18:26:55.902Z,26.30
2017-09-24T18:29:24.643Z,29.00
2017-09-24T18:31:53.053Z,28.10
2017-09-24T18:34:21.730Z,24.67
2017-09-24T18:36:52.039Z,21.80
2017-09-24T18:39:20.968Z,20.90
2017-09-24T18:49:30.611Z,21.13
2017-09-24T18:51:59.224Z,18.17
2017-09-24T18:59:36.219Z,26.60
2017-09-24T19:04:37.551Z,19.40
2017-09-24T19:12:14.142Z,19.47
2017-09-24T19:14:43.532Z,23.20
2017-09-24T19:17:11.963Z,26.50
2017-09-24T19:19:40.564Z,21.00
2017-09-24T19:24:45.498Z,24.00
2017-09-24T19:27:14.029Z,20.63
2017-09-24T19:29:42.547Z,21.63
2017-09-24T19:32:11.058Z,23.23
2017-09-24T19:34:39.952Z,24.50
2017-09-24T19:37:08.889Z,22.10
2017-09-24T19:39:37.573Z,24.17
2017-09-24T19:42:06.163Z,24.93
2017-09-24T19:44:38.585Z,26.60
2017-09-24T19:47:09.030Z,27.47
2017-09-24T19:49:37.861Z,31.77
2017-09-24T19:52:06.405Z,24.93
2017-09-24T19:54:35.071Z,24.23
2017-09-24T19:57:03.910Z,24.83
2017-09-24T19:59:32.323Z,29.83
2017-09-24T20:02:01.112Z,33.07
2017-09-24T20:04:29.723Z,27.37
2017-09-24T20:06:58.091Z,30.30
2017-09-24T20:09:26.487Z,34.27
2017-09-24T20:11:55.179Z,28.70
2017-09-24T20:14:23.693Z,31.23
2017-09-24T20:19:24.841Z,30.13
2017-09-24T20:21:53.300Z,30.63
2017-09-24T20:24:21.716Z,31.03
2017-09-24T20:26:50.235Z,26.90
2017-09-24T20:29:18.698Z,25.20
2017-09-24T20:31:47.149Z,26.43
2017-09-24T20:34:15.644Z,36.20
2017-09-24T20:36:44.118Z,28.90
2017-09-24T20:39:12.538Z,30.80
2017-09-24T20:41:41.245Z,26.43
2017-09-24T20:44:09.879Z,28.70
2017-09-24T20:46:38.265Z,32.00
2017-09-24T20:49:06.774Z,25.43
2017-09-24T20:51:35.243Z,32.67
2017-09-24T20:54:03.969Z,27.43
2017-09-24T20:56:32.446Z,29.17
2017-09-24T20:59:00.905Z,31.03
2017-09-24T21:01:29.600Z,31.67
2017-09-24T21:03:58.105Z,33.93
2017-09-24T21:06:26.604Z,32.10
2017-09-24T21:08:55.101Z,31.10
2017-09-24T21:11:23.590Z,36.83
2017-09-24T21:13:51.991Z,34.23
2017-09-24T21:16:20.650Z,34.03
2017-09-24T21:18:49.093Z,29.03
2017-09-24T21:21:17.532Z,32.97
2017-09-24T21:23:45.959Z,32.37
2017-09-24T21:26:14.481Z,29.13
2017-09-24T21:28:42.849Z,28.73
2017-09-24T21:31:11.324Z,32.10
2017-09-24T21:33:39.745Z,29.83
2017-09-24T21:36:08.466Z,27.47
2017-09-24T21:38:37.830Z,31.00
2017-09-24T21:41:06.342Z,30.27
2017-09-24T21:43:34.759Z,34.53
2017-09-24T21:46:03.161Z,42.87
2017-09-24T21:48:31.554Z,42.43
2017-09-24T21:50:59.913Z,34.47
2017-09-24T21:53:28.390Z,43.67
2017-09-24T21:55:56.755Z,33.97
2017-09-24T21:58:25.142Z,38.67
2017-09-24T22:00:53.513Z,41.07
2017-09-24T22:03:21.931Z,34.97
2017-09-24T22:05:50.303Z,35.13
2017-09-24T22:08:18.733Z,42.13
2017-09-24T22:10:47.189Z,30.97
2017-09-24T22:13:15.643Z,34.80
2017-09-24T22:15:44.001Z,31.00
2017-09-24T22:18:12.454Z,36.60
2017-09-24T22:20:40.839Z,32.73
2017-09-24T22:23:09.265Z,37.47
2017-09-24T22:25:37.801Z,40.00
2017-09-24T22:28:06.187Z,37.53
2017-09-24T22:30:34.586Z,42.37
2017-09-24T22:33:03.003Z,41.60
2017-09-24T22:35:31.360Z,36.50
2017-09-24T22:37:59.782Z,42.80
2017-09-24T22:40:28.289Z,43.00
2017-09-24T22:42:56.673Z,41.97
2017-09-24T22:45:25.025Z,40.80
2017-09-24T22:47:53.537Z,48.10
2017-09-24T22:50:21.886Z,46.07
2017-09-24T22:52:50.268Z,48.67
2017-09-24T22:55:18.650Z,49.27
2017-09-24T22:57:47.039Z,46.67
2017-09-24T23:00:15.410Z,46.13
2017-09-24T23:02:43.846Z,49.67
2017-09-24T23:05:13.215Z,65.17
2017-09-24T23:07:41.612Z,44.87
2017-09-24T23:10:10.038Z,48.40
2017-09-24T23:12:38.469Z,45.33
2017-09-24T23:15:06.882Z,43.57
2017-09-24T23:17:35.368Z,49.03
2017-09-24T23:20:03.701Z,52.03
2017-09-24T23:22:32.083Z,52.77
2017-09-24T23:25:00.645Z,44.50
2017-09-24T23:27:29.034Z,46.70
2017-09-24T23:29:57.397Z,46.13
2017-09-24T23:32:25.793Z,47.00
2017-09-24T23:34:54.285Z,51.97
2017-09-24T23:37:22.785Z,56.67
2017-09-24T23:39:51.219Z,46.60
2017-09-24T23:42:19.729Z,46.50
2017-09-24T23:44:48.127Z,51.17
2017-09-24T23:47:16.519Z,47.77
2017-09-24T23:49:44.892Z,47.27
2017-09-24T23:52:13.255Z,43.80
2017-09-24T23:54:41.646Z,46.87
2017-09-24T23:57:10.017Z,47.83
2017-09-24T23:59:38.446Z,57.27
